Time,TemperatureF,DewpointF,PressureIn,WindDirection,WindDirectionDegrees,WindSpeedMPH,WindSpeedGustMPH,Humidity,HourlyPrecipIn,Conditions,Clouds,dailyrainin,SoftwareType,DateUTC
2013-01-27 00:04:00,22.0,18.0,30.54,NNW,338,0.0,3.0,83,0.00,,,0.07,,2013-01-27 05:04:00,
2013-01-27 00:12:00,22.0,18.0,30.54,NNW,338,0.0,3.0,83,0.00,,,0.07,,2013-01-27 05:12:00,
2013-01-27 00:22:00,22.0,18.0,30.54,NNW,338,0.0,3.0,83,0.00,,,0.07,,2013-01-27 05:22:00,
2013-01-27 00:32:00,22.0,18.0,30.54,NNW,338,0.0,3.0,83,0.00,,,0.07,,2013-01-27 05:32:00,
2013-01-27 00:40:00,21.0,17.0,30.57,WNW,293,0.0,3.0,85,0.00,,,0.07,,2013-01-27 05:40:00,
2013-01-27 01:02:00,21.0,17.0,30.57,WNW,293,0.0,3.0,85,0.00,,,0.07,,2013-01-27 06:02:00,
2013-01-27 01:11:00,21.0,17.0,30.57,WNW,293,0.0,3.0,85,0.00,,,0.07,,2013-01-27 06:11:00,
2013-01-27 01:21:00,21.0,17.0,30.57,WNW,293,0.0,3.0,85,0.00,,,0.07,,2013-01-27 06:21:00,
2013-01-27 01:32:00,21.0,17.0,30.57,WNW,293,0.0,3.0,85,0.00,,,0.07,,2013-01-27 06:32:00,
2013-01-27 01:40:00,19.0,16.0,30.58,WNW,293,0.0,0.0,86,0.00,,,0.07,,2013-01-27 06:40:00,
2013-01-27 02:01:00,19.0,16.0,30.58,WNW,293,0.0,0.0,86,0.00,,,0.07,,2013-01-27 07:01:00,
2013-01-27 02:14:00,19.0,16.0,30.58,WNW,293,0.0,0.0,86,0.00,,,0.07,,2013-01-27 07:14:00,
2013-01-27 02:21:00,19.0,16.0,30.58,WNW,293,0.0,0.0,86,0.00,,,0.07,,2013-01-27 07:21:00,
2013-01-27 02:32:00,19.0,16.0,30.58,WNW,293,0.0,0.0,86,0.00,,,0.07,,2013-01-27 07:32:00,
2013-01-27 02:40:00,19.0,19.0,30.58,North,0,255.0,255.0,100,0.00,,,0.07,,2013-01-27 07:40:00,
2013-01-27 03:02:00,19.0,19.0,30.58,North,0,255.0,255.0,100,0.00,,,0.07,,2013-01-27 08:02:00,
2013-01-27 03:12:00,19.0,19.0,30.58,North,0,255.0,255.0,100,0.00,,,0.07,,2013-01-27 08:12:00,
2013-01-27 03:22:00,19.0,19.0,30.58,North,0,255.0,255.0,100,0.00,,,0.07,,2013-01-27 08:22:00,
2013-01-27 03:32:00,19.0,19.0,30.58,North,0,255.0,255.0,100,0.00,,,0.07,,2013-01-27 08:32:00,
2013-01-27 03:40:00,19.0,19.0,30.58,North,0,255.0,255.0,100,0.00,,,0.07,,2013-01-27 08:40:00,
2013-01-27 04:03:00,19.0,19.0,30.58,North,0,255.0,255.0,100,0.00,,,0.07,,2013-01-27 09:03:00,
2013-01-27 04:11:00,19.0,19.0,30.58,North,0,255.0,255.0,100,0.00,,,0.07,,2013-01-27 09:11:00,
2013-01-27 04:22:00,19.0,19.0,30.58,North,0,255.0,255.0,100,0.00,,,0.07,,2013-01-27 09:22:00,
2013-01-27 04:32:00,19.0,19.0,30.58,North,0,255.0,255.0,100,0.00,,,0.07,,2013-01-27 09:32:00,
2013-01-27 04:40:00,19.0,19.0,30.57,North,0,255.0,255.0,100,0.00,,,0.07,,2013-01-27 09:40:00,
2013-01-27 05:01:00,19.0,19.0,30.57,North,0,255.0,255.0,100,0.00,,,0.07,,2013-01-27 10:01:00,
2013-01-27 05:11:00,19.0,19.0,30.57,North,0,255.0,255.0,100,0.00,,,0.07,,2013-01-27 10:11:00,
2013-01-27 05:21:00,19.0,19.0,30.57,North,0,255.0,255.0,100,0.00,,,0.07,,2013-01-27 10:21:00,
2013-01-27 05:32:00,19.0,19.0,30.57,North,0,255.0,255.0,100,0.00,,,0.07,,2013-01-27 10:32:00,
2013-01-27 05:40:00,19.0,19.0,30.58,North,0,255.0,255.0,100,0.00,,,0.07,,2013-01-27 10:40:00,
2013-01-27 06:01:00,19.0,19.0,30.58,North,0,255.0,255.0,100,0.00,,,0.07,,2013-01-27 11:01:00,
2013-01-27 06:11:00,19.0,19.0,30.58,North,0,255.0,255.0,100,0.00,,,0.07,,2013-01-27 11:11:00,
2013-01-27 06:22:00,19.0,19.0,30.58,North,0,255.0,255.0,100,0.00,,,0.07,,2013-01-27 11:22:00,
2013-01-27 06:32:00,19.0,19.0,30.58,North,0,255.0,255.0,100,0.00,,,0.07,,2013-01-27 11:32:00,
2013-01-27 06:40:00,19.0,19.0,30.61,North,0,255.0,255.0,100,0.00,,,0.07,,2013-01-27 11:40:00,
2013-01-27 07:02:00,19.0,19.0,30.61,North,0,255.0,255.0,100,0.00,,,0.07,,2013-01-27 12:02:00,
2013-01-27 07:12:00,19.0,19.0,30.61,North,0,255.0,255.0,100,0.00,,,0.07,,2013-01-27 12:12:00,
2013-01-27 07:22:00,19.0,19.0,30.61,North,0,255.0,255.0,100,0.00,,,0.07,,2013-01-27 12:22:00,
2013-01-27 07:32:00,19.0,19.0,30.61,North,0,255.0,255.0,100,0.00,,,0.07,,2013-01-27 12:32:00,
2013-01-27 07:40:00,19.0,19.0,30.62,North,0,255.0,255.0,100,0.00,,,0.07,,2013-01-27 12:40:00,
2013-01-27 08:02:00,19.0,19.0,30.62,North,0,255.0,255.0,100,0.00,,,0.07,,2013-01-27 13:02:00,
2013-01-27 08:12:00,19.0,19.0,30.62,North,0,255.0,255.0,100,0.00,,,0.07,,2013-01-27 13:12:00,
2013-01-27 08:22:00,19.0,19.0,30.62,North,0,255.0,255.0,100,0.00,,,0.07,,2013-01-27 13:22:00,
2013-01-27 08:32:00,19.0,19.0,30.62,North,0,255.0,255.0,100,0.00,,,0.07,,2013-01-27 13:32:00,
2013-01-27 09:40:00,23.0,19.0,30.69,WSW,248,1.0,5.0,84,0.00,,,0.07,,2013-01-27 14:40:00,
2013-01-27 10:02:00,23.0,19.0,30.69,WSW,248,1.0,5.0,84,0.00,,,0.07,,2013-01-27 15:02:00,
2013-01-27 10:12:00,23.0,19.0,30.69,WSW,248,1.0,5.0,84,0.00,,,0.07,,2013-01-27 15:12:00,
2013-01-27 10:22:00,23.0,19.0,30.69,WSW,248,1.0,5.0,84,0.00,,,0.07,,2013-01-27 15:22:00,
2013-01-27 10:32:00,23.0,19.0,30.69,WSW,248,1.0,5.0,84,0.00,,,0.07,,2013-01-27 15:32:00,
2013-01-27 10:40:00,25.0,21.0,30.71,SW,225,1.0,9.0,83,0.00,,,0.07,,2013-01-27 15:40:00,
2013-01-27 11:03:00,25.0,21.0,30.71,SW,225,1.0,9.0,83,0.00,,,0.07,,2013-01-27 16:03:00,
2013-01-27 11:12:00,25.0,21.0,30.71,SW,225,1.0,9.0,83,0.00,,,0.07,,2013-01-27 16:12:00,
2013-01-27 11:22:00,25.0,21.0,30.71,SW,225,1.0,9.0,83,0.00,,,0.07,,2013-01-27 16:22:00,
2013-01-27 11:32:00,25.0,21.0,30.71,SW,225,1.0,9.0,83,0.00,,,0.07,,2013-01-27 16:32:00,
2013-01-27 11:40:00,26.0,21.0,30.71,South,180,0.0,3.0,82,0.00,,,0.07,,2013-01-27 16:40:00,
2013-01-27 12:02:00,26.0,21.0,30.71,South,180,0.0,3.0,82,0.00,,,0.07,,2013-01-27 17:02:00,
2013-01-27 12:12:00,26.0,21.0,30.71,South,180,0.0,3.0,82,0.00,,,0.07,,2013-01-27 17:12:00,
2013-01-27 12:22:00,26.0,21.0,30.71,South,180,0.0,3.0,82,0.00,,,0.07,,2013-01-27 17:22:00,
2013-01-27 12:32:00,26.0,21.0,30.71,South,180,0.0,3.0,82,0.00,,,0.07,,2013-01-27 17:32:00,
2013-01-27 12:40:00,27.0,22.0,30.68,East,90,0.0,9.0,81,0.00,,,0.05,,2013-01-27 17:40:00,
2013-01-27 13:03:00,27.0,22.0,30.68,East,90,0.0,9.0,81,0.00,,,0.05,,2013-01-27 18:03:00,
2013-01-27 13:12:00,27.0,22.0,30.68,East,90,0.0,9.0,81,0.00,,,0.05,,2013-01-27 18:12:00,
2013-01-27 13:23:00,27.0,22.0,30.68,East,90,0.0,9.0,81,0.00,,,0.05,,2013-01-27 18:23:00,
2013-01-27 13:32:00,27.0,22.0,30.68,East,90,0.0,9.0,81,0.00,,,0.05,,2013-01-27 18:32:00,
2013-01-27 13:40:00,29.0,23.0,30.66,SW,225,2.0,5.0,77,0.00,,,0.04,,2013-01-27 18:40:00,
2013-01-27 14:02:00,29.0,23.0,30.66,SW,225,2.0,5.0,77,0.00,,,0.04,,2013-01-27 19:02:00,
2013-01-27 14:12:00,29.0,23.0,30.66,SW,225,2.0,5.0,77,0.00,,,0.04,,2013-01-27 19:12:00,
2013-01-27 14:22:00,29.0,23.0,30.66,SW,225,2.0,5.0,77,0.00,,,0.04,,2013-01-27 19:22:00,
2013-01-27 14:32:00,29.0,23.0,30.66,SW,225,2.0,5.0,77,0.00,,,0.04,,2013-01-27 19:32:00,
2013-01-27 14:40:00,29.0,22.0,30.66,East,90,1.0,3.0,76,0.00,,,0.02,,2013-01-27 19:40:00,
2013-01-27 15:03:00,29.0,22.0,30.66,East,90,1.0,3.0,76,0.00,,,0.02,,2013-01-27 20:03:00,
2013-01-27 15:12:00,29.0,22.0,30.66,East,90,1.0,3.0,76,0.00,,,0.02,,2013-01-27 20:12:00,
2013-01-27 15:22:00,29.0,22.0,30.66,East,90,1.0,3.0,76,0.00,,,0.02,,2013-01-27 20:22:00,
2013-01-27 15:33:00,29.0,22.0,30.66,East,90,1.0,3.0,76,0.00,,,0.02,,2013-01-27 20:33:00,
2013-01-27 15:40:00,29.0,23.0,30.65,ESE,113,0.0,5.0,78,0.00,,,0.01,,2013-01-27 20:40:00,
2013-01-27 16:02:00,29.0,23.0,30.65,ESE,113,0.0,5.0,78,0.00,,,0.01,,2013-01-27 21:02:00,
2013-01-27 16:12:00,29.0,23.0,30.65,ESE,113,0.0,5.0,78,0.00,,,0.01,,2013-01-27 21:12:00,
2013-01-27 16:22:00,29.0,23.0,30.65,ESE,113,0.0,5.0,78,0.00,,,0.01,,2013-01-27 21:22:00,
2013-01-27 16:33:00,29.0,23.0,30.65,ESE,113,0.0,5.0,78,0.00,,,0.01,,2013-01-27 21:33:00,
2013-01-27 16:40:00,29.0,23.0,30.66,SSE,158,0.0,2.0,79,0.00,,,0.01,,2013-01-27 21:40:00,
2013-01-27 17:03:00,29.0,23.0,30.66,SSE,158,0.0,2.0,79,0.00,,,0.01,,2013-01-27 22:03:00,
2013-01-27 17:12:00,29.0,23.0,30.66,SSE,158,0.0,2.0,79,0.00,,,0.01,,2013-01-27 22:12:00,
2013-01-27 17:22:00,29.0,23.0,30.66,SSE,158,0.0,2.0,79,0.00,,,0.01,,2013-01-27 22:22:00,
2013-01-27 17:32:00,29.0,23.0,30.66,SSE,158,0.0,2.0,79,0.00,,,0.01,,2013-01-27 22:32:00,
2013-01-27 17:40:00,29.0,24.0,30.66,ESE,113,0.0,3.0,80,0.00,,,0.01,,2013-01-27 22:40:00,
2013-01-27 18:02:00,29.0,24.0,30.66,ESE,113,0.0,3.0,80,0.00,,,0.01,,2013-01-27 23:02:00,
2013-01-27 18:12:00,29.0,24.0,30.66,ESE,113,0.0,3.0,80,0.00,,,0.01,,2013-01-27 23:12:00,
2013-01-27 18:22:00,29.0,24.0,30.66,ESE,113,0.0,3.0,80,0.00,,,0.01,,2013-01-27 23:22:00,
2013-01-27 18:32:00,29.0,24.0,30.66,ESE,113,0.0,3.0,80,0.00,,,0.01,,2013-01-27 23:32:00,
2013-01-27 18:40:00,29.0,24.0,30.66,SSE,158,0.0,2.0,82,0.00,,,0.00,,2013-01-27 23:40:00,
2013-01-27 19:02:00,29.0,24.0,30.66,SSE,158,0.0,2.0,82,0.00,,,0.00,,2013-01-28 00:02:00,
2013-01-27 19:12:00,29.0,24.0,30.66,SSE,158,0.0,2.0,82,0.00,,,0.00,,2013-01-28 00:12:00,
2013-01-27 19:22:00,29.0,24.0,30.66,SSE,158,0.0,2.0,82,0.00,,,0.00,,2013-01-28 00:22:00,
2013-01-27 19:32:00,29.0,24.0,30.66,SSE,158,0.0,2.0,82,0.00,,,0.00,,2013-01-28 00:32:00,
2013-01-27 20:40:00,29.0,25.0,30.65,SE,135,0.0,2.0,83,0.00,,,0.00,,2013-01-28 01:40:00,
2013-01-27 21:02:00,29.0,25.0,30.65,SE,135,0.0,2.0,83,0.00,,,0.00,,2013-01-28 02:02:00,
2013-01-27 21:11:00,29.0,25.0,30.65,SE,135,0.0,2.0,83,0.00,,,0.00,,2013-01-28 02:11:00,
2013-01-27 21:22:00,29.0,25.0,30.65,SE,135,0.0,2.0,83,0.00,,,0.00,,2013-01-28 02:22:00,
2013-01-27 21:32:00,29.0,25.0,30.65,SE,135,0.0,2.0,83,0.00,,,0.00,,2013-01-28 02:32:00,
2013-01-27 21:40:00,27.0,23.0,30.65,ESE,113,0.0,0.0,86,0.00,,,0.00,,2013-01-28 02:40:00,
2013-01-27 22:02:00,27.0,23.0,30.65,ESE,113,0.0,0.0,86,0.00,,,0.00,,2013-01-28 03:02:00,
2013-01-27 22:12:00,27.0,23.0,30.65,ESE,113,0.0,0.0,86,0.00,,,0.00,,2013-01-28 03:12:00,
2013-01-27 22:22:00,27.0,23.0,30.65,ESE,113,0.0,0.0,86,0.00,,,0.00,,2013-01-28 03:22:00,
2013-01-27 22:32:00,27.0,23.0,30.65,ESE,113,0.0,0.0,86,0.00,,,0.00,,2013-01-28 03:32:00,
2013-01-27 23:40:00,29.0,25.0,30.61,SE,135,1.0,2.0,83,0.00,,,0.00,,2013-01-28 04:40:00,